Time,TemperatureF,DewpointF,PressureIn,WindDirection,WindDirectionDegrees,WindSpeedMPH,WindSpeedGustMPH,Humidity,HourlyPrecipIn,Conditions,Clouds,dailyrainin,SoftwareType,DateUTC
2013-06-01 00:01:00,63.4,60.7,29.89,North,0,0.0,0.0,91,0.00,,,0.00,WeatherCatV1.15B25,2013-06-01 04:01:00,
2013-06-01 00:02:00,63.4,60.7,29.89,North,0,0.0,2.0,91,0.00,,,0.00,WeatherCatV1.15B25,2013-06-01 04:02:00,
2013-06-01 00:03:00,63.3,60.3,29.89,North,0,0.0,2.0,90,0.00,,,0.00,WeatherCatV1.15B25,2013-06-01 04:03:00,
2013-06-01 00:06:00,63.1,60.1,29.89,North,0,0.0,0.0,90,0.00,,,0.00,WeatherCatV1.15B25,2013-06-01 04:06:00,
2013-06-01 00:08:00,63.1,60.1,29.89,North,0,0.0,0.0,90,0.00,,,0.00,WeatherCatV1.15B25,2013-06-01 04:08:00,
2013-06-01 00:13:00,62.9,60.2,29.89,North,0,0.0,0.0,91,0.00,,,0.00,WeatherCatV1.15B25,2013-06-01 04:13:00,
2013-06-01 00:18:00,62.8,60.1,29.89,North,0,0.0,0.0,91,0.00,,,0.00,WeatherCatV1.15B25,2013-06-01 04:18:00,
2013-06-01 00:23:00,62.7,60.0,29.89,North,0,0.0,0.0,91,0.00,,,0.00,WeatherCatV1.15B25,2013-06-01 04:23:00,
2013-06-01 00:28:00,62.7,60.0,29.89,North,0,0.0,2.0,91,0.00,,,0.00,WeatherCatV1.15B25,2013-06-01 04:28:00,
2013-06-01 00:33:00,62.6,59.9,29.89,North,0,0.0,1.0,91,0.00,,,0.00,WeatherCatV1.15B25,2013-06-01 04:33:00,
2013-06-01 00:38:00,62.5,59.8,29.89,North,0,0.0,2.0,91,0.00,,,0.00,WeatherCatV1.15B25,2013-06-01 04:38:00,
2013-06-01 00:43:00,62.3,59.6,29.89,North,0,0.0,0.0,91,0.00,,,0.00,WeatherCatV1.15B25,2013-06-01 04:43:00,
2013-06-01 00:48:00,62.2,59.5,29.89,North,0,0.0,0.0,91,0.00,,,0.00,WeatherCatV1.15B25,2013-06-01 04:48:00,
2013-06-01 00:53:00,62.1,59.4,29.89,North,0,0.0,0.0,91,0.00,,,0.00,WeatherCatV1.15B25,2013-06-01 04:53:00,
2013-06-01 00:58:00,62.0,59.6,29.89,North,0,0.0,0.0,92,0.00,,,0.00,WeatherCatV1.15B25,2013-06-01 04:58:00,
2013-06-01 01:03:00,61.9,59.5,29.89,North,0,0.0,0.0,92,0.00,,,0.00,WeatherCatV1.15B25,2013-06-01 05:03:00,
2013-06-01 01:08:00,61.7,59.3,29.88,North,0,0.0,0.0,92,0.00,,,0.00,WeatherCatV1.15B25,2013-06-01 05:08:00,
2013-06-01 01:13:00,61.6,59.2,29.88,North,0,0.0,0.0,92,0.00,,,0.00,WeatherCatV1.15B25,2013-06-01 05:13:00,
2013-06-01 01:18:00,61.6,59.2,29.88,North,0,0.0,0.0,92,0.00,,,0.00,WeatherCatV1.15B25,2013-06-01 05:18:00,
2013-06-01 01:23:00,61.4,59.1,29.88,North,0,0.0,0.0,92,0.00,,,0.00,WeatherCatV1.15B25,2013-06-01 05:23:00,
2013-06-01 01:28:00,61.4,59.1,29.88,North,0,0.0,0.0,92,0.00,,,0.00,WeatherCatV1.15B25,2013-06-01 05:28:00,
2013-06-01 01:33:00,61.4,59.1,29.88,North,0,0.0,0.0,92,0.00,,,0.00,WeatherCatV1.15B25,2013-06-01 05:33:00,
2013-06-01 01:38:00,61.3,59.0,29.88,North,0,0.0,0.0,92,0.00,,,0.00,WeatherCatV1.15B25,2013-06-01 05:38:00,
2013-06-01 01:43:00,61.3,59.0,29.88,North,0,1.0,1.0,92,0.00,,,0.00,WeatherCatV1.15B25,2013-06-01 05:43:00,
2013-06-01 01:48:00,61.3,59.0,29.88,North,0,0.0,0.0,92,0.00,,,0.00,WeatherCatV1.15B25,2013-06-01 05:48:00,
2013-06-01 01:53:00,61.3,59.0,29.88,North,0,0.0,0.0,92,0.00,,,0.00,WeatherCatV1.15B25,2013-06-01 05:53:00,
2013-06-01 01:58:00,61.2,58.9,29.88,North,0,0.0,0.0,92,0.00,,,0.00,WeatherCatV1.15B25,2013-06-01 05:58:00,
2013-06-01 02:03:00,61.2,59.2,29.88,North,0,0.0,1.0,93,0.00,,,0.00,WeatherCatV1.15B25,2013-06-01 06:03:00,
2013-06-01 02:08:00,61.2,59.2,29.88,North,0,0.0,0.0,93,0.00,,,0.00,WeatherCatV1.15B25,2013-06-01 06:08:00,
2013-06-01 02:13:00,61.0,59.0,29.88,North,0,0.0,0.0,93,0.00,,,0.00,WeatherCatV1.15B25,2013-06-01 06:13:00,
2013-06-01 02:18:00,61.0,58.7,29.88,North,0,0.0,0.0,92,0.00,,,0.00,WeatherCatV1.15B25,2013-06-01 06:18:00,
2013-06-01 02:23:00,60.9,58.6,29.87,North,0,0.0,0.0,92,0.00,,,0.00,WeatherCatV1.15B25,2013-06-01 06:23:00,
2013-06-01 02:28:00,60.9,58.9,29.88,North,0,0.0,0.0,93,0.00,,,0.00,WeatherCatV1.15B25,2013-06-01 06:28:00,
2013-06-01 02:33:00,60.9,58.9,29.88,North,0,0.0,1.0,93,0.00,,,0.00,WeatherCatV1.15B25,2013-06-01 06:33:00,
2013-06-01 02:38:00,60.9,58.9,29.87,North,0,0.0,0.0,93,0.00,,,0.00,WeatherCatV1.15B25,2013-06-01 06:38:00,
2013-06-01 02:43:00,60.8,58.8,29.87,North,0,0.0,0.0,93,0.00,,,0.00,WeatherCatV1.15B25,2013-06-01 06:43:00,
2013-06-01 02:48:00,60.7,58.7,29.87,North,0,0.0,0.0,93,0.00,,,0.00,WeatherCatV1.15B25,2013-06-01 06:48:00,
2013-06-01 02:53:00,60.8,58.8,29.87,North,0,0.0,0.0,93,0.00,,,0.00,WeatherCatV1.15B25,2013-06-01 06:53:00,
2013-06-01 02:58:00,60.7,58.7,29.87,North,0,0.0,0.0,93,0.00,,,0.00,WeatherCatV1.15B25,2013-06-01 06:58:00,
2013-06-01 03:03:00,60.7,58.7,29.87,North,0,0.0,0.0,93,0.00,,,0.00,WeatherCatV1.15B25,2013-06-01 07:03:00,
2013-06-01 03:08:00,60.7,58.7,29.87,North,0,0.0,0.0,93,0.00,,,0.00,WeatherCatV1.15B25,2013-06-01 07:08:00,
2013-06-01 03:13:00,60.6,58.6,29.87,North,0,0.0,0.0,93,0.00,,,0.00,WeatherCatV1.15B25,2013-06-01 07:13:00,
2013-06-01 03:18:00,60.5,58.5,29.87,North,0,0.0,0.0,93,0.00,,,0.00,WeatherCatV1.15B25,2013-06-01 07:18:00,
2013-06-01 03:23:00,60.5,58.5,29.87,North,0,0.0,0.0,93,0.00,,,0.00,WeatherCatV1.15B25,2013-06-01 07:23:00,
2013-06-01 03:28:00,60.4,58.4,29.87,North,0,0.0,0.0,93,0.00,,,0.00,WeatherCatV1.15B25,2013-06-01 07:28:00,
2013-06-01 03:33:00,60.3,58.3,29.87,North,0,0.0,0.0,93,0.00,,,0.00,WeatherCatV1.15B25,2013-06-01 07:33:00,
2013-06-01 03:38:00,60.3,58.3,29.87,North,0,0.0,0.0,93,0.00,,,0.00,WeatherCatV1.15B25,2013-06-01 07:38:00,
2013-06-01 03:43:00,60.2,58.2,29.87,North,0,0.0,0.0,93,0.00,,,0.00,WeatherCatV1.15B25,2013-06-01 07:43:00,
2013-06-01 03:48:00,60.2,58.2,29.87,North,0,0.0,0.0,93,0.00,,,0.00,WeatherCatV1.15B25,2013-06-01 07:48:00,
2013-06-01 03:53:00,60.1,58.4,29.87,North,0,0.0,0.0,94,0.00,,,0.00,WeatherCatV1.15B25,2013-06-01 07:53:00,
2013-06-01 03:58:00,60.0,58.3,29.87,North,0,0.0,0.0,94,0.00,,,0.00,WeatherCatV1.15B25,2013-06-01 07:58:00,
2013-06-01 04:03:00,60.0,58.3,29.88,North,0,0.0,0.0,94,0.00,,,0.00,WeatherCatV1.15B25,2013-06-01 08:03:00,
2013-06-01 04:08:00,60.0,58.3,29.88,North,0,0.0,0.0,94,0.00,,,0.00,WeatherCatV1.15B25,2013-06-01 08:08:00,
2013-06-01 04:13:00,60.0,58.3,29.88,North,0,0.0,0.0,94,0.00,,,0.00,WeatherCatV1.15B25,2013-06-01 08:13:00,
2013-06-01 04:18:00,60.1,58.4,29.88,North,0,0.0,0.0,94,0.00,,,0.00,WeatherCatV1.15B25,2013-06-01 08:18:00,
2013-06-01 04:23:00,60.1,58.4,29.88,North,0,0.0,0.0,94,0.00,,,0.00,WeatherCatV1.15B25,2013-06-01 08:23:00,
2013-06-01 04:28:00,60.1,58.4,29.88,North,0,0.0,0.0,94,0.00,,,0.00,WeatherCatV1.15B25,2013-06-01 08:28:00,
2013-06-01 04:33:00,60.1,58.4,29.88,North,0,0.0,0.0,94,0.00,,,0.00,WeatherCatV1.15B25,2013-06-01 08:33:00,
2013-06-01 04:38:00,60.2,58.5,29.88,North,0,0.0,0.0,94,0.00,,,0.00,WeatherCatV1.15B25,2013-06-01 08:38:00,
2013-06-01 04:43:00,60.1,58.4,29.88,North,0,0.0,0.0,94,0.00,,,0.00,WeatherCatV1.15B25,2013-06-01 08:43:00,
2013-06-01 04:48:00,60.2,58.5,29.88,North,0,0.0,0.0,94,0.00,,,0.00,WeatherCatV1.15B25,2013-06-01 08:48:00,
2013-06-01 04:53:00,60.2,58.5,29.88,North,0,0.0,0.0,94,0.00,,,0.00,WeatherCatV1.15B25,2013-06-01 08:53:00,
2013-06-01 04:58:00,60.2,58.5,29.89,North,0,0.0,0.0,94,0.00,,,0.00,WeatherCatV1.15B25,2013-06-01 08:58:00,
2013-06-01 05:03:00,60.2,58.5,29.88,North,0,0.0,0.0,94,0.00,,,0.00,WeatherCatV1.15B25,2013-06-01 09:03:00,
2013-06-01 05:08:00,60.2,58.5,29.88,North,0,0.0,0.0,94,0.00,,,0.00,WeatherCatV1.15B25,2013-06-01 09:08:00,
2013-06-01 05:13:00,60.1,58.4,29.88,North,0,0.0,0.0,94,0.00,,,0.00,WeatherCatV1.15B25,2013-06-01 09:13:00,
2013-06-01 05:18:00,60.1,58.4,29.88,North,0,0.0,0.0,94,0.00,,,0.00,WeatherCatV1.15B25,2013-06-01 09:18:00,
2013-06-01 05:23:00,60.1,58.4,29.88,North,0,0.0,0.0,94,0.00,,,0.00,WeatherCatV1.15B25,2013-06-01 09:23:00,
2013-06-01 05:28:00,60.2,58.5,29.88,North,0,0.0,0.0,94,0.00,,,0.00,WeatherCatV1.15B25,2013-06-01 09:28:00,
2013-06-01 05:33:00,60.3,58.9,29.88,North,0,0.0,0.0,95,0.00,,,0.00,WeatherCatV1.15B25,2013-06-01 09:33:00,
2013-06-01 05:38:00,60.4,59.0,29.88,North,0,0.0,0.0,95,0.00,,,0.00,WeatherCatV1.15B25,2013-06-01 09:38:00,
2013-06-01 05:43:00,60.4,59.0,29.89,North,0,0.0,0.0,95,0.00,,,0.00,WeatherCatV1.15B25,2013-06-01 09:43:00,
2013-06-01 05:48:00,60.5,59.1,29.89,North,0,0.0,0.0,95,0.00,,,0.00,WeatherCatV1.15B25,2013-06-01 09:48:00,
2013-06-01 05:53:00,60.5,59.1,29.89,North,0,0.0,0.0,95,0.00,,,0.00,WeatherCatV1.15B25,2013-06-01 09:53:00,
2013-06-01 05:58:00,60.8,59.4,29.88,North,0,0.0,0.0,95,0.00,,,0.00,WeatherCatV1.15B25,2013-06-01 09:58:00,
2013-06-01 06:03:00,60.8,59.4,29.89,North,0,0.0,0.0,95,0.00,,,0.00,WeatherCatV1.15B25,2013-06-01 10:03:00,
2013-06-01 06:08:00,60.8,59.4,29.89,North,0,0.0,0.0,95,0.00,,,0.00,WeatherCatV1.15B25,2013-06-01 10:08:00,
2013-06-01 06:13:00,60.9,59.5,29.89,North,0,0.0,0.0,95,0.00,,,0.00,WeatherCatV1.15B25,2013-06-01 10:13:00,
2013-06-01 06:18:00,61.1,59.7,29.88,North,0,0.0,0.0,95,0.00,,,0.00,WeatherCatV1.15B25,2013-06-01 10:18:00,
2013-06-01 06:23:00,61.3,59.9,29.88,North,0,0.0,0.0,95,0.00,,,0.00,WeatherCatV1.15B25,2013-06-01 10:23:00,
2013-06-01 06:28:00,61.4,60.0,29.88,North,0,0.0,0.0,95,0.00,,,0.00,WeatherCatV1.15B25,2013-06-01 10:28:00,
2013-06-01 06:33:00,61.6,60.2,29.88,North,0,0.0,0.0,95,0.00,,,0.00,WeatherCatV1.15B25,2013-06-01 10:33:00,
2013-06-01 06:38:00,61.7,60.2,29.88,North,0,0.0,0.0,95,0.00,,,0.00,WeatherCatV1.15B25,2013-06-01 10:38:00,
2013-06-01 06:43:00,61.9,60.4,29.88,North,0,0.0,0.0,95,0.00,,,0.00,WeatherCatV1.15B25,2013-06-01 10:43:00,
2013-06-01 06:48:00,62.2,60.7,29.88,North,0,0.0,0.0,95,0.00,,,0.00,WeatherCatV1.15B25,2013-06-01 10:48:00,
2013-06-01 06:53:00,62.6,61.1,29.88,North,0,0.0,0.0,95,0.00,,,0.00,WeatherCatV1.15B25,2013-06-01 10:53:00,
2013-06-01 06:58:00,62.9,61.4,29.88,North,0,0.0,0.0,95,0.00,,,0.00,WeatherCatV1.15B25,2013-06-01 10:58:00,
2013-06-01 07:03:00,63.1,61.9,29.89,North,0,0.0,0.0,96,0.00,,,0.00,WeatherCatV1.15B25,2013-06-01 11:03:00,
2013-06-01 07:08:00,63.5,62.0,29.90,North,0,0.0,0.0,95,0.00,,,0.00,WeatherCatV1.15B25,2013-06-01 11:08:00,
2013-06-01 07:13:00,63.8,62.6,29.89,North,0,0.0,0.0,96,0.00,,,0.00,WeatherCatV1.15B25,2013-06-01 11:13:00,
2013-06-01 07:18:00,64.1,62.6,29.89,North,0,0.0,0.0,95,0.00,,,0.00,WeatherCatV1.15B25,2013-06-01 11:18:00,
2013-06-01 07:23:00,64.6,63.4,29.89,North,0,0.0,0.0,96,0.00,,,0.00,WeatherCatV1.15B25,2013-06-01 11:23:00,
2013-06-01 07:28:00,65.0,63.8,29.89,North,0,0.0,0.0,96,0.00,,,0.00,WeatherCatV1.15B25,2013-06-01 11:28:00,
2013-06-01 07:33:00,65.3,63.8,29.89,North,355,0.0,0.0,95,0.00,,,0.00,WeatherCatV1.15B25,2013-06-01 11:33:00,
2013-06-01 07:38:00,65.7,64.2,29.89,North,355,0.0,0.0,95,0.00,,,0.00,WeatherCatV1.15B25,2013-06-01 11:38:00,
2013-06-01 07:43:00,66.0,64.5,29.89,North,355,0.0,0.0,95,0.00,,,0.00,WeatherCatV1.15B25,2013-06-01 11:43:00,
2013-06-01 07:48:00,66.3,64.8,29.89,North,355,0.0,0.0,95,0.00,,,0.00,WeatherCatV1.15B25,2013-06-01 11:48:00,
2013-06-01 07:53:00,66.7,65.2,29.89,North,355,0.0,0.0,95,0.00,,,0.00,WeatherCatV1.15B25,2013-06-01 11:53:00,
2013-06-01 07:58:00,67.0,65.5,29.89,North,355,0.0,0.0,95,0.00,,,0.00,WeatherCatV1.15B25,2013-06-01 11:58:00,
2013-06-01 08:03:00,67.6,66.1,29.89,North,355,0.0,0.0,95,0.00,,,0.00,WeatherCatV1.15B25,2013-06-01 12:03:00,
2013-06-01 08:08:00,68.0,66.5,29.90,North,355,0.0,0.0,95,0.00,,,0.00,WeatherCatV1.15B25,2013-06-01 12:08:00,
2013-06-01 08:13:00,68.3,66.2,29.89,North,355,0.0,0.0,93,0.00,,,0.00,WeatherCatV1.15B25,2013-06-01 12:13:00,
2013-06-01 08:18:00,68.5,66.1,29.89,North,355,0.0,0.0,92,0.00,,,0.00,WeatherCatV1.15B25,2013-06-01 12:18:00,
2013-06-01 08:23:00,68.8,66.4,29.89,North,355,0.0,0.0,92,0.00,,,0.00,WeatherCatV1.15B25,2013-06-01 12:23:00,
2013-06-01 08:28:00,69.2,66.5,29.89,North,355,0.0,0.0,91,0.00,,,0.00,WeatherCatV1.15B25,2013-06-01 12:28:00,
2013-06-01 08:33:00,69.7,66.9,29.89,North,355,0.0,0.0,91,0.00,,,0.00,WeatherCatV1.15B25,2013-06-01 12:33:00,
2013-06-01 08:38:00,70.0,67.2,29.90,North,355,0.0,0.0,91,0.00,,,0.00,WeatherCatV1.15B25,2013-06-01 12:38:00,
2013-06-01 08:43:00,70.3,66.9,29.89,North,355,0.0,0.0,89,0.00,,,0.00,WeatherCatV1.15B25,2013-06-01 12:43:00,
2013-06-01 08:48:00,70.7,67.6,29.89,North,355,0.0,0.0,90,0.00,,,0.00,WeatherCatV1.15B25,2013-06-01 12:48:00,
2013-06-01 08:53:00,70.9,67.5,29.89,North,355,0.0,0.0,89,0.00,,,0.00,WeatherCatV1.15B25,2013-06-01 12:53:00,
2013-06-01 08:58:00,71.1,67.4,29.89,North,355,0.0,0.0,88,0.00,,,0.00,WeatherCatV1.15B25,2013-06-01 12:58:00,
2013-06-01 09:03:00,71.3,67.9,29.89,North,355,0.0,0.0,89,0.00,,,0.00,WeatherCatV1.15B25,2013-06-01 13:03:00,
2013-06-01 09:08:00,71.6,68.2,29.89,North,355,0.0,0.0,89,0.00,,,0.00,WeatherCatV1.15B25,2013-06-01 13:08:00,
2013-06-01 09:13:00,72.0,67.9,29.88,North,355,0.0,0.0,87,0.00,,,0.00,WeatherCatV1.15B25,2013-06-01 13:13:00,
2013-06-01 09:18:00,72.6,68.5,29.88,North,355,0.0,0.0,87,0.00,,,0.00,WeatherCatV1.15B25,2013-06-01 13:18:00,
2013-06-01 09:23:00,73.3,68.8,29.88,North,355,0.0,0.0,86,0.00,,,0.00,WeatherCatV1.15B25,2013-06-01 13:23:00,
2013-06-01 09:28:00,73.8,69.0,29.88,North,355,0.0,0.0,85,0.00,,,0.00,WeatherCatV1.15B25,2013-06-01 13:28:00,
2013-06-01 09:33:00,74.3,69.5,29.88,North,355,0.0,0.0,85,0.00,,,0.00,WeatherCatV1.15B25,2013-06-01 13:33:00,
2013-06-01 09:38:00,74.8,69.3,29.87,North,355,0.0,0.0,83,0.00,,,0.00,WeatherCatV1.15B25,2013-06-01 13:38:00,
2013-06-01 09:43:00,75.5,70.0,29.87,North,355,0.0,0.0,83,0.00,,,0.00,WeatherCatV1.15B25,2013-06-01 13:43:00,
2013-06-01 09:48:00,75.8,70.3,29.87,North,355,0.0,1.0,83,0.00,,,0.00,WeatherCatV1.15B25,2013-06-01 13:48:00,
2013-06-01 09:53:00,76.1,70.5,29.86,North,355,0.0,0.0,83,0.00,,,0.00,WeatherCatV1.15B25,2013-06-01 13:53:00,
2013-06-01 09:58:00,76.7,69.7,29.86,North,355,0.0,3.0,79,0.00,,,0.00,WeatherCatV1.15B25,2013-06-01 13:58:00,
2013-06-01 10:03:00,77.9,66.0,29.86,North,0,0.0,1.0,67,0.00,,,0.00,WeatherCatV1.15B25,2013-06-01 14:03:00,
2013-06-01 10:08:00,78.8,67.3,29.86,North,0,1.0,1.0,68,0.00,,,0.00,WeatherCatV1.15B25,2013-06-01 14:08:00,
2013-06-01 10:13:00,79.1,67.2,29.86,North,0,0.0,0.0,67,0.00,,,0.00,WeatherCatV1.15B25,2013-06-01 14:13:00,
2013-06-01 10:18:00,78.9,67.4,29.86,North,0,0.0,1.0,68,0.00,,,0.00,WeatherCatV1.15B25,2013-06-01 14:18:00,
2013-06-01 10:23:00,78.7,68.1,29.86,North,0,0.0,1.0,70,0.00,,,0.00,WeatherCatV1.15B25,2013-06-01 14:23:00,
2013-06-01 10:28:00,78.6,68.0,29.85,North,0,2.0,2.0,70,0.00,,,0.00,WeatherCatV1.15B25,2013-06-01 14:28:00,
2013-06-01 10:33:00,79.4,66.1,29.85,NNW,344,2.0,2.0,64,0.00,,,0.00,WeatherCatV1.15B25,2013-06-01 14:33:00,
2013-06-01 10:38:00,80.5,65.3,29.85,NNW,344,0.0,0.0,60,0.00,,,0.00,WeatherCatV1.15B25,2013-06-01 14:38:00,
2013-06-01 10:43:00,81.5,65.8,29.85,NW,321,2.0,4.0,59,0.00,,,0.00,WeatherCatV1.15B25,2013-06-01 14:43:00,
2013-06-01 10:48:00,81.8,64.5,29.84,NE,55,2.0,3.0,56,0.00,,,0.00,WeatherCatV1.15B25,2013-06-01 14:48:00,
2013-06-01 10:54:00,82.6,63.2,29.85,NNW,335,1.0,2.0,52,0.00,,,0.00,WeatherCatV1.15B25,2013-06-01 14:54:00,
2013-06-01 10:59:00,83.4,64.4,29.84,NW,304,3.0,3.0,53,0.00,,,0.00,WeatherCatV1.15B25,2013-06-01 14:59:00,
2013-06-01 11:04:00,84.0,65.5,29.84,ENE,63,2.0,2.0,54,0.00,,,0.00,WeatherCatV1.15B25,2013-06-01 15:04:00,
2013-06-01 11:09:00,84.2,65.2,29.83,NE,50,1.0,4.0,53,0.00,,,0.00,WeatherCatV1.15B25,2013-06-01 15:09:00,
2013-06-01 11:14:00,84.4,63.7,29.83,ESE,115,0.0,2.0,50,0.00,,,0.00,WeatherCatV1.15B25,2013-06-01 15:14:00,
2013-06-01 11:19:00,84.8,62.9,29.84,SW,217,0.0,5.0,48,0.00,,,0.00,WeatherCatV1.15B25,2013-06-01 15:19:00,
2013-06-01 11:24:00,85.1,60.7,29.83,SW,229,3.0,4.0,44,0.00,,,0.00,WeatherCatV1.15B25,2013-06-01 15:24:00,
2013-06-01 11:29:00,85.7,63.7,29.83,SW,215,0.0,10.0,48,0.00,,,0.00,WeatherCatV1.15B25,2013-06-01 15:29:00,
2013-06-01 11:34:00,86.1,64.1,29.83,ESE,119,2.0,5.0,48,0.00,,,0.00,WeatherCatV1.15B25,2013-06-01 15:34:00,
2013-06-01 11:39:00,86.4,63.7,29.83,North,0,1.0,3.0,47,0.00,,,0.00,WeatherCatV1.15B25,2013-06-01 15:39:00,
2013-06-01 11:45:00,87.1,60.5,29.83,NNW,330,2.0,5.0,41,0.00,,,0.00,WeatherCatV1.15B25,2013-06-01 15:45:00,
2013-06-01 11:50:00,87.7,63.7,29.82,NNW,327,2.0,4.0,45,0.00,,,0.00,WeatherCatV1.15B25,2013-06-01 15:50:00,
2013-06-01 11:55:00,87.9,63.9,29.83,SSW,194,4.0,4.0,45,0.00,,,0.00,WeatherCatV1.15B25,2013-06-01 15:55:00,
2013-06-01 12:00:00,88.1,62.1,29.83,NNW,345,1.0,12.0,42,0.00,,,0.00,WeatherCatV1.15B25,2013-06-01 16:00:00,
2013-06-01 12:05:00,88.5,63.1,29.83,NE,55,2.0,4.0,43,0.00,,,0.00,WeatherCatV1.15B25,2013-06-01 16:05:00,
2013-06-01 12:10:00,88.8,60.6,29.83,NW,312,1.0,3.0,39,0.00,,,0.00,WeatherCatV1.15B25,2013-06-01 16:10:00,
2013-06-01 12:15:00,89.6,62.0,29.82,South,178,0.0,1.0,40,0.00,,,0.00,WeatherCatV1.15B25,2013-06-01 16:15:00,
2013-06-01 12:20:00,90.3,63.4,29.82,SSW,211,0.0,3.0,41,0.00,,,0.00,WeatherCatV1.15B25,2013-06-01 16:20:00,
2013-06-01 12:25:00,90.5,62.8,29.82,East,88,3.0,4.0,40,0.00,,,0.00,WeatherCatV1.15B25,2013-06-01 16:25:00,
2013-06-01 12:30:00,90.4,62.7,29.82,NW,319,0.0,4.0,40,0.00,,,0.00,WeatherCatV1.15B25,2013-06-01 16:30:00,
2013-06-01 12:35:00,90.5,62.1,29.82,NW,306,3.0,3.0,39,0.00,,,0.00,WeatherCatV1.15B25,2013-06-01 16:35:00,
2013-06-01 12:40:00,90.3,60.4,29.82,WNW,302,2.0,7.0,37,0.00,,,0.00,WeatherCatV1.15B25,2013-06-01 16:40:00,
2013-06-01 12:45:00,90.4,62.7,29.81,NW,309,0.0,1.0,40,0.00,,,0.00,WeatherCatV1.15B25,2013-06-01 16:45:00,
2013-06-01 12:50:00,90.9,62.5,29.81,West,276,0.0,2.0,39,0.00,,,0.00,WeatherCatV1.15B25,2013-06-01 16:50:00,
2013-06-01 12:55:00,91.3,66.9,29.81,East,86,3.0,3.0,45,0.00,,,0.00,WeatherCatV1.15B25,2013-06-01 16:55:00,
2013-06-01 13:00:00,91.4,67.0,29.80,North,355,1.0,7.0,45,0.00,,,0.00,WeatherCatV1.15B25,2013-06-01 17:00:00,
2013-06-01 13:05:00,91.4,61.4,29.80,NW,311,0.0,4.0,37,0.00,,,0.00,WeatherCatV1.15B25,2013-06-01 17:05:00,
2013-06-01 13:10:00,91.3,62.1,29.80,ENE,61,0.0,2.0,38,0.00,,,0.00,WeatherCatV1.15B25,2013-06-01 17:10:00,
2013-06-01 13:15:00,90.9,61.7,29.80,NNW,331,2.0,5.0,38,0.00,,,0.00,WeatherCatV1.15B25,2013-06-01 17:15:00,
2013-06-01 13:20:00,90.5,62.8,29.80,NW,326,1.0,1.0,40,0.00,,,0.00,WeatherCatV1.15B25,2013-06-01 17:20:00,
2013-06-01 13:25:00,90.4,62.0,29.80,ENE,77,4.0,4.0,39,0.00,,,0.00,WeatherCatV1.15B25,2013-06-01 17:25:00,
2013-06-01 13:30:00,90.4,61.3,29.80,SE,132,2.0,3.0,38,0.00,,,0.00,WeatherCatV1.15B25,2013-06-01 17:30:00,
2013-06-01 13:35:00,90.5,64.9,29.79,SSE,151,1.0,1.0,43,0.00,,,0.00,WeatherCatV1.15B25,2013-06-01 17:35:00,
2013-06-01 13:40:00,90.8,65.2,29.80,East,94,3.0,5.0,43,0.00,,,0.00,WeatherCatV1.15B25,2013-06-01 17:40:00,
2013-06-01 13:45:00,91.0,64.0,29.80,East,92,2.0,4.0,41,0.00,,,0.00,WeatherCatV1.15B25,2013-06-01 17:45:00,
2013-06-01 13:50:00,90.8,63.1,29.80,ESE,105,4.0,5.0,40,0.00,,,0.00,WeatherCatV1.15B25,2013-06-01 17:50:00,
2013-06-01 13:55:00,90.9,62.5,29.80,NNW,329,3.0,5.0,39,0.00,,,0.00,WeatherCatV1.15B25,2013-06-01 17:55:00,
2013-06-01 14:00:00,91.0,67.3,29.79,WSW,248,0.0,0.0,46,0.00,,,0.00,WeatherCatV1.15B25,2013-06-01 18:00:00,
2013-06-01 14:05:00,91.4,63.6,29.79,West,271,1.0,4.0,40,0.00,,,0.00,WeatherCatV1.15B25,2013-06-01 18:05:00,
2013-06-01 14:10:00,91.7,65.3,29.80,WSW,257,1.0,4.0,42,0.00,,,0.00,WeatherCatV1.15B25,2013-06-01 18:10:00,
2013-06-01 14:15:00,91.6,62.3,29.79,North,349,2.0,3.0,38,0.00,,,0.00,WeatherCatV1.15B25,2013-06-01 18:15:00,
2013-06-01 14:20:00,91.5,60.7,29.79,SE,126,1.0,3.0,36,0.00,,,0.00,WeatherCatV1.15B25,2013-06-01 18:20:00,
2013-06-01 14:25:00,90.9,62.5,29.79,West,266,0.0,3.0,39,0.00,,,0.00,WeatherCatV1.15B25,2013-06-01 18:25:00,
2013-06-01 14:30:00,90.6,62.2,29.79,NE,53,1.0,4.0,39,0.00,,,0.00,WeatherCatV1.15B25,2013-06-01 18:30:00,
2013-06-01 14:35:00,90.1,61.0,29.80,North,351,6.0,10.0,38,0.00,,,0.00,WeatherCatV1.15B25,2013-06-01 18:35:00,
2013-06-01 14:40:00,90.4,62.0,29.79,NW,322,0.0,4.0,39,0.00,,,0.00,WeatherCatV1.15B25,2013-06-01 18:40:00,
2013-06-01 14:45:00,91.1,61.9,29.79,South,173,0.0,7.0,38,0.00,,,0.00,WeatherCatV1.15B25,2013-06-01 18:45:00,
2013-06-01 14:50:00,91.1,60.4,29.80,NW,313,0.0,7.0,36,0.00,,,0.00,WeatherCatV1.15B25,2013-06-01 18:50:00,
2013-06-01 14:55:00,90.8,63.1,29.80,NNE,26,2.0,3.0,40,0.00,,,0.00,WeatherCatV1.15B25,2013-06-01 18:55:00,
2013-06-01 15:00:00,90.9,61.0,29.80,West,271,0.0,6.0,37,0.00,,,0.00,WeatherCatV1.15B25,2013-06-01 19:00:00,
2013-06-01 15:05:00,91.3,65.6,29.79,NNE,15,0.0,4.0,43,0.00,,,0.00,WeatherCatV1.15B25,2013-06-01 19:05:00,
2013-06-01 15:10:00,91.4,62.9,29.79,ESE,117,4.0,6.0,39,0.00,,,0.00,WeatherCatV1.15B25,2013-06-01 19:10:00,
2013-06-01 15:15:00,91.4,63.6,29.78,NW,321,4.0,6.0,40,0.00,,,0.00,WeatherCatV1.15B25,2013-06-01 19:15:00,
2013-06-01 15:20:00,91.4,63.6,29.78,ESE,109,3.0,4.0,40,0.00,,,0.00,WeatherCatV1.15B25,2013-06-01 19:20:00,
2013-06-01 15:25:00,91.7,64.6,29.78,WNW,288,0.0,0.0,41,0.00,,,0.00,WeatherCatV1.15B25,2013-06-01 19:25:00,
2013-06-01 15:30:00,92.5,67.4,29.77,West,273,1.0,3.0,44,0.00,,,0.00,WeatherCatV1.15B25,2013-06-01 19:30:00,
2013-06-01 15:35:00,92.7,64.8,29.77,NW,310,3.0,3.0,40,0.00,,,0.00,WeatherCatV1.15B25,2013-06-01 19:35:00,
2013-06-01 15:40:00,92.7,64.1,29.77,SW,236,0.0,1.0,39,0.00,,,0.00,WeatherCatV1.15B25,2013-06-01 19:40:00,
2013-06-01 15:45:00,92.4,64.5,29.77,ESE,107,1.0,1.0,40,0.00,,,0.00,WeatherCatV1.15B25,2013-06-01 19:45:00,
2013-06-01 15:50:00,91.9,66.2,29.77,NE,55,0.0,2.0,43,0.00,,,0.00,WeatherCatV1.15B25,2013-06-01 19:50:00,
2013-06-01 15:55:00,91.8,65.4,29.77,North,0,1.0,3.0,42,0.00,,,0.00,WeatherCatV1.15B25,2013-06-01 19:55:00,
2013-06-01 16:00:00,91.7,64.6,29.76,NNE,29,0.0,3.0,41,0.00,,,0.00,WeatherCatV1.15B25,2013-06-01 20:00:00,
2013-06-01 16:05:00,91.7,63.9,29.76,NE,55,0.0,2.0,40,0.00,,,0.00,WeatherCatV1.15B25,2013-06-01 20:05:00,
2013-06-01 16:10:00,91.4,63.6,29.76,NNE,25,3.0,4.0,40,0.00,,,0.00,WeatherCatV1.15B25,2013-06-01 20:10:00,
2013-06-01 16:15:00,90.8,63.1,29.77,ENE,57,1.0,1.0,40,0.00,,,0.00,WeatherCatV1.15B25,2013-06-01 20:15:00,
2013-06-01 16:20:00,90.0,62.4,29.77,NNW,331,3.0,3.0,40,0.00,,,0.00,WeatherCatV1.15B25,2013-06-01 20:20:00,
2013-06-01 16:25:00,89.5,62.6,29.76,NW,311,0.0,2.0,41,0.00,,,0.00,WeatherCatV1.15B25,2013-06-01 20:25:00,
2013-06-01 16:30:00,89.1,63.6,29.77,NW,317,1.0,1.0,43,0.00,,,0.00,WeatherCatV1.15B25,2013-06-01 20:30:00,
2013-06-01 16:35:00,88.3,60.2,29.77,SE,146,2.0,4.0,39,0.00,,,0.00,WeatherCatV1.15B25,2013-06-01 20:35:00,
2013-06-01 16:40:00,87.9,61.2,29.77,NNE,30,1.0,1.0,41,0.00,,,0.00,WeatherCatV1.15B25,2013-06-01 20:40:00,
2013-06-01 16:45:00,87.9,61.9,29.76,NNW,327,2.0,3.0,42,0.00,,,0.00,WeatherCatV1.15B25,2013-06-01 20:45:00,
2013-06-01 16:50:00,87.9,64.5,29.77,North,9,1.0,3.0,46,0.00,,,0.00,WeatherCatV1.15B25,2013-06-01 20:50:00,
2013-06-01 16:55:00,88.1,63.4,29.76,NW,317,0.0,2.0,44,0.00,,,0.00,WeatherCatV1.15B25,2013-06-01 20:55:00,
2013-06-01 17:00:00,88.8,63.4,29.76,NNW,329,0.0,2.0,43,0.00,,,0.00,WeatherCatV1.15B25,2013-06-01 21:00:00,
2013-06-01 17:05:00,89.0,67.3,29.76,NNW,327,0.0,1.0,49,0.00,,,0.00,WeatherCatV1.15B25,2013-06-01 21:05:00,
2013-06-01 17:10:00,88.9,62.1,29.77,NNW,337,0.0,1.0,41,0.00,,,0.00,WeatherCatV1.15B25,2013-06-01 21:10:00,
2013-06-01 17:15:00,88.0,62.0,29.77,East,99,3.0,4.0,42,0.00,,,0.00,WeatherCatV1.15B25,2013-06-01 21:15:00,
2013-06-01 17:20:00,86.9,60.3,29.78,West,275,1.0,5.0,41,0.00,,,0.00,WeatherCatV1.15B25,2013-06-01 21:20:00,
2013-06-01 17:25:00,86.3,58.4,29.79,WSW,244,0.0,5.0,39,0.00,,,0.00,WeatherCatV1.15B25,2013-06-01 21:25:00,
2013-06-01 17:30:00,85.6,59.8,29.79,NNE,32,0.0,4.0,42,0.00,,,0.00,WeatherCatV1.15B25,2013-06-01 21:30:00,
2013-06-01 17:35:00,84.2,60.5,29.80,SE,128,2.0,3.0,45,0.00,,,0.00,WeatherCatV1.15B25,2013-06-01 21:35:00,
2013-06-01 17:40:00,83.0,62.4,29.81,SE,130,0.0,2.0,50,0.00,,,0.00,WeatherCatV1.15B25,2013-06-01 21:40:00,
2013-06-01 17:45:00,81.8,63.5,29.81,SE,125,0.0,1.0,54,0.00,,,0.00,WeatherCatV1.15B25,2013-06-01 21:45:00,
2013-06-01 17:50:00,80.9,63.2,29.81,East,82,0.0,3.0,55,0.00,,,0.00,WeatherCatV1.15B25,2013-06-01 21:50:00,
2013-06-01 17:55:00,80.2,64.5,29.82,East,82,0.0,0.0,59,0.00,,,0.00,WeatherCatV1.15B25,2013-06-01 21:55:00,
2013-06-01 18:00:00,79.3,63.7,29.81,East,82,0.0,0.0,59,0.00,,,0.00,WeatherCatV1.15B25,2013-06-01 22:00:00,
2013-06-01 18:05:00,78.7,65.5,29.81,East,82,0.0,0.0,64,0.00,,,0.00,WeatherCatV1.15B25,2013-06-01 22:05:00,
2013-06-01 18:10:00,77.9,64.7,29.81,East,82,0.0,0.0,64,0.00,,,0.00,WeatherCatV1.15B25,2013-06-01 22:10:00,
2013-06-01 18:15:00,77.5,65.2,29.80,East,82,0.0,0.0,66,0.00,,,0.00,WeatherCatV1.15B25,2013-06-01 22:15:00,
2013-06-01 18:20:00,77.1,65.3,29.80,East,82,0.0,0.0,67,0.00,,,0.00,WeatherCatV1.15B25,2013-06-01 22:20:00,
2013-06-01 18:25:00,76.9,65.5,29.80,East,81,0.0,0.0,68,0.00,,,0.00,WeatherCatV1.15B25,2013-06-01 22:25:00,
2013-06-01 18:30:00,76.8,65.8,29.80,ENE,78,0.0,0.0,69,0.00,,,0.00,WeatherCatV1.15B25,2013-06-01 22:30:00,
2013-06-01 18:35:00,76.6,64.8,29.79,ENE,76,0.0,0.0,67,0.00,,,0.00,WeatherCatV1.15B25,2013-06-01 22:35:00,
2013-06-01 18:40:00,76.5,65.1,29.79,ENE,78,0.0,0.0,68,0.00,,,0.00,WeatherCatV1.15B25,2013-06-01 22:40:00,
2013-06-01 18:45:00,76.6,65.6,29.79,ENE,78,0.0,0.0,69,0.00,,,0.00,WeatherCatV1.15B25,2013-06-01 22:45:00,
2013-06-01 18:50:00,76.6,66.1,29.79,East,87,0.0,0.0,70,0.00,,,0.00,WeatherCatV1.15B25,2013-06-01 22:50:00,
2013-06-01 18:55:00,76.4,66.3,29.79,East,86,0.0,0.0,71,0.00,,,0.00,WeatherCatV1.15B25,2013-06-01 22:55:00,
2013-06-01 19:00:00,76.3,67.0,29.79,East,86,0.0,0.0,73,0.00,,,0.00,WeatherCatV1.15B25,2013-06-01 23:00:00,
2013-06-01 19:05:00,76.1,67.2,29.78,East,86,0.0,0.0,74,0.00,,,0.00,WeatherCatV1.15B25,2013-06-01 23:05:00,
2013-06-01 19:10:00,76.0,67.1,29.79,East,84,0.0,0.0,74,0.00,,,0.00,WeatherCatV1.15B25,2013-06-01 23:10:00,
2013-06-01 19:15:00,75.8,67.3,29.78,East,93,0.0,0.0,75,0.00,,,0.00,WeatherCatV1.15B25,2013-06-01 23:15:00,
2013-06-01 19:20:00,75.5,67.4,29.78,East,93,0.0,0.0,76,0.00,,,0.00,WeatherCatV1.15B25,2013-06-01 23:20:00,
2013-06-01 19:25:00,75.2,67.5,29.78,East,98,0.0,0.0,77,0.00,,,0.00,WeatherCatV1.15B25,2013-06-01 23:25:00,
2013-06-01 19:30:00,74.9,67.2,29.78,East,101,0.0,0.0,77,0.00,,,0.00,WeatherCatV1.15B25,2013-06-01 23:30:00,
2013-06-01 19:35:00,74.6,67.3,29.79,ESE,109,0.0,0.0,78,0.00,,,0.00,WeatherCatV1.15B25,2013-06-01 23:35:00,
2013-06-01 19:40:00,74.3,67.0,29.79,ESE,111,0.0,0.0,78,0.00,,,0.00,WeatherCatV1.15B25,2013-06-01 23:40:00,
2013-06-01 19:45:00,74.0,67.1,29.79,ESE,110,0.0,0.0,79,0.00,,,0.00,WeatherCatV1.15B25,2013-06-01 23:45:00,
2013-06-01 19:50:00,73.8,67.2,29.79,ESE,111,0.0,0.0,80,0.00,,,0.00,WeatherCatV1.15B25,2013-06-01 23:50:00,
2013-06-01 19:55:00,73.5,67.3,29.79,ESE,113,0.0,0.0,81,0.00,,,0.00,WeatherCatV1.15B25,2013-06-01 23:55:00,
2013-06-01 20:00:00,73.1,66.6,29.79,ESE,113,0.0,0.0,80,0.00,,,0.00,WeatherCatV1.15B25,2013-06-02 00:00:00,
2013-06-01 20:05:00,72.8,66.6,29.78,SE,133,0.0,0.0,81,0.00,,,0.00,WeatherCatV1.15B25,2013-06-02 00:05:00,
2013-06-01 20:10:00,72.3,66.1,29.79,SSE,168,0.0,0.0,81,0.00,,,0.00,WeatherCatV1.15B25,2013-06-02 00:10:00,
2013-06-01 20:15:00,71.8,66.0,29.79,SSE,168,0.0,0.0,82,0.00,,,0.00,WeatherCatV1.15B25,2013-06-02 00:15:00,
2013-06-01 20:20:00,71.3,65.9,29.79,SSE,168,0.0,0.0,83,0.00,,,0.00,WeatherCatV1.15B25,2013-06-02 00:20:00,
2013-06-01 20:25:00,71.0,65.6,29.79,SSE,168,0.0,0.0,83,0.00,,,0.00,WeatherCatV1.15B25,2013-06-02 00:25:00,
2013-06-01 20:30:00,70.6,65.5,29.79,SSE,168,0.0,0.0,84,0.00,,,0.00,WeatherCatV1.15B25,2013-06-02 00:30:00,
2013-06-01 20:35:00,70.2,65.5,29.79,SSE,168,0.0,0.0,85,0.00,,,0.00,WeatherCatV1.15B25,2013-06-02 00:35:00,
2013-06-01 20:40:00,69.9,65.2,29.79,SSE,167,0.0,0.0,85,0.00,,,0.00,WeatherCatV1.15B25,2013-06-02 00:40:00,
2013-06-01 20:45:00,69.5,65.1,29.79,SSE,167,0.0,0.0,86,0.00,,,0.00,WeatherCatV1.15B25,2013-06-02 00:45:00,
2013-06-01 20:50:00,69.2,64.8,29.79,SSE,167,0.0,0.0,86,0.00,,,0.00,WeatherCatV1.15B25,2013-06-02 00:50:00,
2013-06-01 20:55:00,68.9,64.9,29.79,SSE,167,0.0,0.0,87,0.00,,,0.00,WeatherCatV1.15B25,2013-06-02 00:55:00,
2013-06-01 21:00:00,68.6,64.6,29.79,SSE,167,0.0,0.0,87,0.00,,,0.00,WeatherCatV1.15B25,2013-06-02 01:00:00,
2013-06-01 21:05:00,68.3,64.3,29.79,SSE,167,0.0,0.0,87,0.00,,,0.00,WeatherCatV1.15B25,2013-06-02 01:05:00,
2013-06-01 21:10:00,68.0,64.3,29.79,SSE,167,0.0,0.0,88,0.00,,,0.00,WeatherCatV1.15B25,2013-06-02 01:10:00,
2013-06-01 21:15:00,67.7,64.0,29.79,SSE,167,0.0,0.0,88,0.00,,,0.00,WeatherCatV1.15B25,2013-06-02 01:15:00,
2013-06-01 21:20:00,67.5,63.8,29.79,SSE,167,0.0,0.0,88,0.00,,,0.00,WeatherCatV1.15B25,2013-06-02 01:20:00,
2013-06-01 21:25:00,67.2,63.8,29.79,SSE,167,0.0,0.0,89,0.00,,,0.00,WeatherCatV1.15B25,2013-06-02 01:25:00,
2013-06-01 21:30:00,67.1,63.7,29.80,SSE,167,0.0,0.0,89,0.00,,,0.00,WeatherCatV1.15B25,2013-06-02 01:30:00,
2013-06-01 21:35:00,66.9,63.5,29.79,SSE,167,0.0,0.0,89,0.00,,,0.00,WeatherCatV1.15B25,2013-06-02 01:35:00,
2013-06-01 21:40:00,66.8,63.8,29.79,SSE,167,0.0,0.0,90,0.00,,,0.00,WeatherCatV1.15B25,2013-06-02 01:40:00,
2013-06-01 21:45:00,66.6,63.2,29.80,SSE,167,0.0,0.0,89,0.00,,,0.00,WeatherCatV1.15B25,2013-06-02 01:45:00,
2013-06-01 21:50:00,66.5,63.2,29.80,SSE,167,0.0,0.0,89,0.00,,,0.00,WeatherCatV1.15B25,2013-06-02 01:50:00,
2013-06-01 21:55:00,66.4,63.1,29.80,SSE,167,0.0,0.0,89,0.00,,,0.00,WeatherCatV1.15B25,2013-06-02 01:55:00,
2013-06-01 22:00:00,66.2,62.9,29.79,SSE,167,0.0,0.0,89,0.00,,,0.00,WeatherCatV1.15B25,2013-06-02 02:00:00,
2013-06-01 22:05:00,66.1,62.8,29.79,SSE,167,0.0,0.0,89,0.00,,,0.00,WeatherCatV1.15B25,2013-06-02 02:05:00,
2013-06-01 22:10:00,66.0,63.0,29.79,SSE,167,0.0,0.0,90,0.00,,,0.00,WeatherCatV1.15B25,2013-06-02 02:10:00,
2013-06-01 22:15:00,65.8,62.5,29.79,SSE,167,0.0,0.0,89,0.00,,,0.00,WeatherCatV1.15B25,2013-06-02 02:15:00,
2013-06-01 22:20:00,65.6,62.6,29.80,SSE,167,0.0,0.0,90,0.00,,,0.00,WeatherCatV1.15B25,2013-06-02 02:20:00,
2013-06-01 22:26:00,65.4,62.4,29.79,SSE,167,0.0,0.0,90,0.00,,,0.00,WeatherCatV1.15B25,2013-06-02 02:26:00,
2013-06-01 22:31:00,65.3,62.3,29.80,SSE,167,0.0,0.0,90,0.00,,,0.00,WeatherCatV1.15B25,2013-06-02 02:31:00,
2013-06-01 22:36:00,65.3,62.3,29.80,SSE,167,0.0,0.0,90,0.00,,,0.00,WeatherCatV1.15B25,2013-06-02 02:36:00,
2013-06-01 22:41:00,65.2,62.2,29.80,SSE,167,0.0,0.0,90,0.00,,,0.00,WeatherCatV1.15B25,2013-06-02 02:41:00,
2013-06-01 22:46:00,65.1,62.4,29.79,SSE,167,0.0,0.0,91,0.00,,,0.00,WeatherCatV1.15B25,2013-06-02 02:46:00,
2013-06-01 22:51:00,65.0,62.3,29.79,SSE,167,0.0,0.0,91,0.00,,,0.00,WeatherCatV1.15B25,2013-06-02 02:51:00,
2013-06-01 22:56:00,64.9,62.2,29.79,SSE,167,0.0,0.0,91,0.00,,,0.00,WeatherCatV1.15B25,2013-06-02 02:56:00,
2013-06-01 23:01:00,64.8,62.1,29.79,SSE,167,0.0,0.0,91,0.00,,,0.00,WeatherCatV1.15B25,2013-06-02 03:01:00,
2013-06-01 23:06:00,64.7,62.0,29.78,SSE,167,0.0,0.0,91,0.00,,,0.00,WeatherCatV1.15B25,2013-06-02 03:06:00,
2013-06-01 23:11:00,64.6,61.9,29.78,SSE,167,0.0,0.0,91,0.00,,,0.00,WeatherCatV1.15B25,2013-06-02 03:11:00,
2013-06-01 23:16:00,64.6,61.9,29.78,SSE,167,0.0,0.0,91,0.00,,,0.00,WeatherCatV1.15B25,2013-06-02 03:16:00,
2013-06-01 23:21:00,64.6,61.9,29.78,SSE,167,0.0,0.0,91,0.00,,,0.00,WeatherCatV1.15B25,2013-06-02 03:21:00,
2013-06-01 23:26:00,64.5,62.1,29.78,SSE,167,0.0,0.0,92,0.00,,,0.00,WeatherCatV1.15B25,2013-06-02 03:26:00,
2013-06-01 23:31:00,64.5,62.1,29.78,SSE,167,0.0,0.0,92,0.00,,,0.00,WeatherCatV1.15B25,2013-06-02 03:31:00,
2013-06-01 23:36:00,64.5,62.1,29.78,SSE,167,0.0,0.0,92,0.00,,,0.00,WeatherCatV1.15B25,2013-06-02 03:36:00,
2013-06-01 23:41:00,64.5,62.1,29.78,SSE,167,0.0,0.0,92,0.00,,,0.00,WeatherCatV1.15B25,2013-06-02 03:41:00,
2013-06-01 23:46:00,64.5,62.1,29.78,SSE,167,0.0,0.0,92,0.00,,,0.00,WeatherCatV1.15B25,2013-06-02 03:46:00,
2013-06-01 23:51:00,64.5,62.1,29.78,SSE,167,0.0,0.0,92,0.00,,,0.00,WeatherCatV1.15B25,2013-06-02 03:51:00,
2013-06-01 23:56:00,64.5,62.1,29.78,SSE,167,0.0,0.0,92,0.00,,,0.00,WeatherCatV1.15B25,2013-06-02 03:56:00,